Time;durP1;ratioP1;P1;durP2;ratioP2;P2;SDS_P1;SDS_P2;PMS_P1;PMS_P2;Temp;Humidity;BMP_temperature;BMP_pressure;BME280_temperature;BME280_humidity;BME280_pressure;Samples;Min_cycle;Max_cycle;Signal;HPM_P1;HPM_P2
2022/11/29 00:01:36;;;;;;;729.37;656.00;;;7.20;99.90;;;;;;5016636;28;20464;-86
2022/11/29 00:04:04;;;;;;;716.40;643.03;;;7.30;99.90;;;;;;5017022;28;20544;-86
2022/11/29 00:06:33;;;;;;;717.37;644.67;;;7.20;99.90;;;;;;5016792;28;20491;-86
2022/11/29 00:09:06;;;;;;;720.37;647.70;;;7.30;99.90;;;;;;5016108;28;21051;-86
2022/11/29 00:14:20;;;;;;;731.67;657.97;;;7.20;99.90;;;;;;5016602;28;20448;-86
2022/11/29 00:16:51;;;;;;;735.20;661.80;;;7.20;99.90;;;;;;5016558;28;20488;-89
2022/11/29 00:19:18;;;;;;;741.33;668.23;;;7.30;99.90;;;;;;5016139;28;20992;-86
2022/11/29 00:21:45;;;;;;;752.23;678.20;;;7.40;99.90;;;;;;5016852;28;20488;-86
2022/11/29 00:24:13;;;;;;;758.83;685.00;;;7.40;99.90;;;;;;5016575;28;20457;-85
2022/11/29 00:26:40;;;;;;;758.67;684.73;;;7.60;99.90;;;;;;5016035;28;20481;-85
2022/11/29 00:29:07;;;;;;;750.60;677.00;;;7.50;99.90;;;;;;5016400;28;20453;-86
2022/11/29 00:31:34;;;;;;;753.00;679.03;;;7.60;99.90;;;;;;5016917;28;20457;-86
2022/11/29 00:34:03;;;;;;;754.97;681.47;;;7.50;99.90;;;;;;5016510;28;20544;-86
2022/11/29 00:36:31;;;;;;;737.83;665.30;;;7.60;99.90;;;;;;5015997;28;20473;-86
2022/11/29 00:38:57;;;;;;;722.73;650.97;;;7.70;99.90;;;;;;5016084;28;20453;-86
2022/11/29 00:41:26;;;;;;;727.47;655.17;;;7.60;99.90;;;;;;5015801;28;20464;-87
2022/11/29 00:43:53;;;;;;;749.00;676.37;;;7.70;99.90;;;;;;5016110;28;20489;-86
2022/11/29 00:46:20;;;;;;;753.73;681.03;;;7.70;99.90;;;;;;5015915;28;20480;-86
2022/11/29 00:48:47;;;;;;;710.73;639.23;;;7.60;99.90;;;;;;5016030;28;20456;-89
2022/11/29 00:51:13;;;;;;;711.93;640.33;;;7.60;99.90;;;;;;5015889;28;20453;-86
2022/11/29 00:53:40;;;;;;;709.43;637.93;;;7.70;99.90;;;;;;5015474;28;20557;-86
2022/11/29 00:56:08;;;;;;;720.30;646.83;;;7.70;99.90;;;;;;5016122;28;20484;-84
2022/11/29 00:58:37;;;;;;;723.53;651.17;;;7.80;99.90;;;;;;5015191;28;20476;-86
2022/11/29 01:01:04;;;;;;;721.97;649.47;;;7.70;99.90;;;;;;5015178;28;20461;-86
2022/11/29 01:03:31;;;;;;;716.80;643.93;;;7.70;99.90;;;;;;5015059;28;20954;-89
2022/11/29 01:06:01;;;;;;;714.30;641.00;;;8.00;99.90;;;;;;5014606;28;20453;-86
2022/11/29 01:08:28;;;;;;;728.10;653.00;;;8.00;99.90;;;;;;5016053;28;20446;-86
2022/11/29 01:11:02;;;;;;;739.53;665.73;;;8.10;99.90;;;;;;5015561;28;20459;-86
2022/11/29 01:13:29;;;;;;;743.33;669.33;;;8.00;99.90;;;;;;5015045;28;20453;-86
2022/11/29 01:15:58;;;;;;;732.13;659.07;;;8.20;99.90;;;;;;5015507;28;20459;-85
2022/11/29 01:18:25;;;;;;;711.33;639.17;;;8.10;99.90;;;;;;5015326;28;20503;-86
2022/11/29 01:20:57;;;;;;;714.30;642.60;;;7.90;99.90;;;;;;5015701;28;20794;-86
2022/11/29 01:23:24;;;;;;;720.20;647.80;;;8.00;99.90;;;;;;5015349;28;20442;-86
2022/11/29 01:26:01;;;;;;;721.23;649.93;;;8.00;99.90;;;;;;5016035;28;20549;-86
2022/11/29 01:28:29;;;;;;;714.10;643.07;;;8.00;99.90;;;;;;5015815;28;20453;-86
2022/11/29 01:30:57;;;;;;;706.77;635.20;;;8.00;99.90;;;;;;5014278;28;20556;-85
2022/11/29 01:33:24;;;;;;;700.30;628.90;;;8.00;99.90;;;;;;5015368;28;20462;-86
2022/11/29 01:35:53;;;;;;;712.00;641.03;;;8.00;99.90;;;;;;5015045;28;20457;-88
2022/11/29 01:38:21;;;;;;;718.17;646.97;;;7.90;99.90;;;;;;5014784;28;20564;-86
2022/11/29 01:40:57;;;;;;;717.83;646.10;;;7.90;99.90;;;;;;5014847;28;20459;-88
2022/11/29 01:43:24;;;;;;;726.13;654.83;;;7.90;99.90;;;;;;5014816;28;20459;-86
2022/11/29 01:45:51;;;;;;;733.30;661.67;;;7.90;99.90;;;;;;5015232;28;20461;-85
2022/11/29 01:48:21;;;;;;;728.97;656.37;;;8.00;99.90;;;;;;5015070;28;20455;-86
2022/11/29 01:50:48;;;;;;;721.77;649.97;;;8.00;99.90;;;;;;5015518;28;20804;-86
2022/11/29 01:53:16;;;;;;;713.93;643.07;;;7.90;99.90;;;;;;5014899;28;20629;-86
2022/11/29 01:55:47;;;;;;;722.30;650.90;;;8.00;99.90;;;;;;5015585;28;20459;-85
2022/11/29 01:58:15;;;;;;;714.07;643.10;;;8.00;99.90;;;;;;5015442;28;20475;-88
2022/11/29 02:00:42;;;;;;;691.33;620.23;;;7.90;99.90;;;;;;5015489;28;20457;-86
2022/11/29 02:03:11;;;;;;;671.03;600.53;;;7.90;99.90;;;;;;5015236;28;20459;-86
2022/11/29 02:05:43;;;;;;;679.87;606.90;;;7.90;99.90;;;;;;5015101;28;20457;-86
2022/11/29 02:08:12;;;;;;;697.23;624.40;;;7.80;99.90;;;;;;5015195;28;20440;-86
2022/11/29 02:10:51;;;;;;;668.30;594.50;;;7.80;99.90;;;;;;5015351;28;20961;-87
2022/11/29 02:13:27;;;;;;;680.30;605.60;;;7.70;99.90;;;;;;5014815;28;20464;-85
2022/11/29 02:15:59;;;;;;;671.63;597.37;;;7.80;99.90;;;;;;5015469;28;20467;-86
2022/11/29 02:18:37;;;;;;;668.40;586.60;;;7.80;99.90;;;;;;5015369;28;20526;-86
2022/11/29 02:21:18;;;;;;;671.47;596.33;;;7.90;99.90;;;;;;5015522;28;20443;-86
2022/11/29 02:24:29;;;;;;;675.17;601.90;;;7.90;99.90;;;;;;5015338;28;20464;-85
2022/11/29 02:27:22;;;;;;;662.57;589.37;;;7.80;99.90;;;;;;5014545;28;20466;-86
2022/11/29 02:30:11;;;;;;;651.07;573.73;;;8.00;99.90;;;;;;5013906;28;20452;-85
2022/11/29 02:33:15;;;;;;;672.57;599.27;;;8.00;99.90;;;;;;5014721;28;20457;-85
2022/11/29 02:36:07;;;;;;;661.67;588.53;;;7.90;99.90;;;;;;5015048;28;20503;-86
2022/11/29 02:38:59;;;;;;;672.03;598.23;;;8.00;99.90;;;;;;5014867;28;20488;-86
2022/11/29 02:41:43;;;;;;;666.07;591.57;;;7.90;99.90;;;;;;5016306;28;20453;-86
2022/11/29 02:44:28;;;;;;;680.87;607.03;;;8.00;99.90;;;;;;5019742;28;20456;-85
2022/11/29 02:47:07;;;;;;;672.00;592.20;;;8.00;99.90;;;;;;5017791;28;20523;-86
2022/11/29 02:50:03;;;;;;;668.47;592.27;;;8.10;99.90;;;;;;5018329;28;20503;-85
2022/11/29 02:52:40;;;;;;;673.70;600.50;;;8.00;99.90;;;;;;5016000;28;20471;-85
2022/11/29 02:55:15;;;;;;;708.70;632.20;;;8.20;99.90;;;;;;5017633;28;20527;-86
2022/11/29 02:57:50;;;;;;;700.37;624.33;;;8.20;99.90;;;;;;5017720;28;20507;-86
2022/11/29 03:00:20;;;;;;;701.43;625.57;;;8.00;99.90;;;;;;5017853;28;20436;-86
2022/11/29 03:02:53;;;;;;;710.50;623.77;;;8.00;99.90;;;;;;5017458;28;20488;-86
2022/11/29 03:05:29;;;;;;;708.37;629.97;;;8.00;99.90;;;;;;5017523;28;20462;-86
2022/11/29 03:08:11;;;;;;;728.20;644.90;;;8.20;99.90;;;;;;5017766;28;20493;-87
2022/11/29 03:10:43;;;;;;;718.30;630.07;;;8.10;99.90;;;;;;5017457;28;20938;-85
2022/11/29 03:13:17;;;;;;;704.57;627.13;;;8.10;99.90;;;;;;5018444;28;20457;-85
2022/11/29 03:15:52;;;;;;;735.27;657.27;;;8.10;99.90;;;;;;5017707;28;20524;-86
2022/11/29 03:18:33;;;;;;;717.30;639.57;;;8.00;99.90;;;;;;5017776;28;20481;-86
2022/11/29 03:21:12;;;;;;;722.10;644.00;;;8.00;99.90;;;;;;5017919;28;20441;-86
2022/11/29 03:23:45;;;;;;;701.07;624.97;;;8.10;99.90;;;;;;5017669;28;20476;-87
2022/11/29 03:26:17;;;;;;;697.63;621.47;;;8.00;99.90;;;;;;5019342;28;20477;-85
2022/11/29 03:28:51;;;;;;;694.67;618.80;;;8.00;99.90;;;;;;5017271;28;20504;-86
2022/11/29 03:31:23;;;;;;;692.40;615.90;;;8.00;99.90;;;;;;5017314;28;20461;-87
2022/11/29 03:33:57;;;;;;;710.20;632.57;;;8.10;99.90;;;;;;5018413;28;20450;-85
2022/11/29 03:36:35;;;;;;;705.73;628.73;;;7.90;99.90;;;;;;5017777;28;20473;-86
2022/11/29 03:39:07;;;;;;;688.47;613.60;;;7.90;99.90;;;;;;5017436;28;20564;-86
2022/11/29 03:41:39;;;;;;;701.80;616.50;;;7.90;99.90;;;;;;5017870;28;20456;-85
2022/11/29 03:44:12;;;;;;;702.00;611.67;;;7.90;99.90;;;;;;5017968;28;20464;-86
2022/11/29 03:46:46;;;;;;;692.23;600.40;;;7.90;99.90;;;;;;5017668;28;20473;-86
2022/11/29 03:49:20;;;;;;;702.00;606.00;;;7.90;99.90;;;;;;5018112;28;20453;-86
2022/11/29 03:51:59;;;;;;;699.23;603.43;;;8.10;99.90;;;;;;5017240;28;20456;-86
2022/11/29 03:54:29;;;;;;;740.43;663.13;;;8.00;99.90;;;;;;5017363;28;20519;-86
2022/11/29 03:56:56;;;;;;;748.57;670.23;;;8.10;99.90;;;;;;5017646;28;20855;-86
2022/11/29 03:59:33;;;;;;;739.37;660.27;;;7.90;99.90;;;;;;5017541;28;20844;-86
2022/11/29 04:02:28;;;;;;;709.90;609.40;;;8.00;99.90;;;;;;5017613;28;20475;-86
2022/11/29 04:05:33;;;;;;;712.00;609.57;;;8.00;99.90;;;;;;5017016;28;20536;-86
2022/11/29 04:08:33;;;;;;;712.63;610.97;;;8.00;99.90;;;;;;4956726;29;20468;-86
2022/11/29 04:11:54;;;;;;;709.63;611.30;;;8.00;99.90;;;;;;4956756;29;20454;-86
2022/11/29 04:14:59;;;;;;;711.70;618.87;;;7.90;99.90;;;;;;4956447;29;20454;-87
2022/11/29 04:18:00;;;;;;;714.53;618.57;;;8.10;99.90;;;;;;4956352;29;20472;-85
2022/11/29 04:20:51;;;;;;;718.60;618.50;;;8.00;99.90;;;;;;5013574;28;20445;-85
2022/11/29 04:23:53;;;;;;;731.33;608.43;;;8.10;99.90;;;;;;5016809;28;20992;-85
2022/11/29 04:26:59;;;;;;;738.63;609.90;;;8.00;99.90;;;;;;5017207;28;20473;-89
2022/11/29 04:29:55;;;;;;;754.90;611.53;;;8.10;99.90;;;;;;5006983;28;21115;-85
2022/11/29 04:32:45;;;;;;;748.40;635.87;;;8.00;99.90;;;;;;5016949;28;20442;-86
2022/11/29 04:35:41;;;;;;;757.60;659.90;;;8.10;99.90;;;;;;5014232;28;20457;-86
2022/11/29 04:38:28;;;;;;;756.27;658.73;;;8.00;99.90;;;;;;5004475;28;20473;-86
2022/11/29 04:41:34;;;;;;;760.43;622.47;;;8.10;99.90;;;;;;5016509;28;20463;-86
2022/11/29 04:44:16;;;;;;;762.00;623.63;;;8.10;99.90;;;;;;5016199;28;20460;-85
2022/11/29 04:47:05;;;;;;;788.93;627.97;;;8.10;99.90;;;;;;5016125;28;20495;-88
2022/11/29 04:50:00;;;;;;;774.50;626.97;;;8.10;99.90;;;;;;5016207;28;20850;-86
2022/11/29 04:52:53;;;;;;;793.57;620.77;;;8.20;99.90;;;;;;5013524;28;20832;-86
2022/11/29 04:55:35;;;;;;;815.00;643.17;;;8.10;99.90;;;;;;5010321;28;20472;-87
2022/11/29 04:58:11;;;;;;;796.67;643.03;;;8.30;99.90;;;;;;5017362;28;20484;-89
2022/11/29 05:00:47;;;;;;;780.67;631.00;;;8.00;99.90;;;;;;5015859;28;20460;-89
2022/11/29 05:03:23;;;;;;;811.30;635.50;;;8.20;99.90;;;;;;5016047;28;20948;-86
2022/11/29 05:05:59;;;;;;;819.23;637.83;;;8.20;99.90;;;;;;5015567;28;20889;-86
2022/11/29 05:08:38;;;;;;;750.87;636.60;;;8.20;99.90;;;;;;5016114;28;20453;-86
2022/11/29 05:11:14;;;;;;;829.87;647.40;;;8.20;99.90;;;;;;5015795;28;20455;-85
2022/11/29 05:13:53;;;;;;;821.60;659.60;;;8.10;99.90;;;;;;5014559;28;20457;-86
2022/11/29 05:16:44;;;;;;;816.63;691.83;;;8.10;99.90;;;;;;5014249;28;20476;-86
2022/11/29 05:19:33;;;;;;;822.53;662.90;;;8.20;99.90;;;;;;5014421;28;20491;-86
2022/11/29 05:22:07;;;;;;;823.43;650.70;;;8.10;99.90;;;;;;5020993;28;20528;-85
2022/11/29 05:24:49;;;;;;;817.53;659.50;;;8.10;99.90;;;;;;5016379;28;20882;-86
2022/11/29 05:27:21;;;;;;;810.07;661.27;;;8.10;99.90;;;;;;5014664;28;20472;-86
2022/11/29 05:29:57;;;;;;;829.63;668.50;;;8.10;99.90;;;;;;5014076;28;20453;-86
2022/11/29 05:32:34;;;;;;;838.63;671.20;;;8.10;99.90;;;;;;5014173;28;20456;-86
2022/11/29 05:35:29;;;;;;;830.07;673.80;;;8.20;99.90;;;;;;5013940;28;20461;-85
2022/11/29 05:38:07;;;;;;;820.70;657.97;;;8.10;99.90;;;;;;5015364;28;20473;-85
2022/11/29 05:40:53;;;;;;;845.90;655.73;;;8.20;99.90;;;;;;5015035;28;20937;-86
2022/11/29 05:43:40;;;;;;;844.33;663.30;;;8.10;99.90;;;;;;5014853;28;20957;-90
2022/11/29 05:46:14;;;;;;;833.40;652.57;;;8.00;99.90;;;;;;5015123;28;20483;-85
2022/11/29 05:48:50;;;;;;;860.83;679.30;;;8.10;99.90;;;;;;5015516;28;20469;-86
2022/11/29 05:51:22;;;;;;;878.33;659.83;;;8.10;99.90;;;;;;5015196;28;20447;-86
2022/11/29 05:54:04;;;;;;;884.57;679.03;;;8.20;99.90;;;;;;5014943;28;20945;-85
2022/11/29 05:56:42;;;;;;;856.47;692.93;;;8.10;99.90;;;;;;5014964;28;20476;-88
2022/11/29 05:59:13;;;;;;;828.53;684.07;;;8.20;99.90;;;;;;5014570;28;20477;-85
2022/11/29 06:01:47;;;;;;;859.87;692.20;;;8.10;99.90;;;;;;5014406;28;20457;-86
2022/11/29 06:04:21;;;;;;;841.57;684.40;;;8.10;99.90;;;;;;5015536;28;20456;-85
2022/11/29 06:06:57;;;;;;;843.47;688.80;;;8.10;99.90;;;;;;5014856;28;20476;-86
2022/11/29 06:09:29;;;;;;;886.43;686.60;;;8.10;99.90;;;;;;5014502;28;20464;-85
2022/11/29 06:12:04;;;;;;;855.00;680.83;;;8.10;99.90;;;;;;5014652;28;20450;-84
2022/11/29 06:15:09;;;;;;;844.50;659.20;;;8.10;99.90;;;;;;5014829;28;20441;-85
2022/11/29 06:17:52;;;;;;;846.80;693.37;;;8.10;99.90;;;;;;4987601;28;20480;-88
2022/11/29 06:20:59;;;;;;;850.97;682.27;;;8.20;99.90;;;;;;5018400;28;20508;-87
2022/11/29 06:23:47;;;;;;;848.97;694.30;;;8.10;99.90;;;;;;5016736;28;20453;-86
2022/11/29 06:26:55;;;;;;;833.80;705.63;;;8.10;99.90;;;;;;5018546;28;20934;-84
2022/11/29 06:29:39;;;;;;;857.10;677.90;;;8.00;99.90;;;;;;4998319;28;20481;-85
2022/11/29 06:32:25;;;;;;;860.10;720.83;;;8.20;99.90;;;;;;5021964;28;20460;-84
2022/11/29 06:35:09;;;;;;;858.00;677.30;;;8.10;99.90;;;;;;5021523;28;20477;-84
2022/11/29 06:37:40;;;;;;;821.17;652.23;;;8.00;99.90;;;;;;5025657;28;20473;-83
2022/11/29 06:40:11;;;;;;;864.97;662.37;;;8.20;99.90;;;;;;5023786;28;20479;-84
2022/11/29 06:43:13;;;;;;;875.33;675.47;;;8.20;99.90;;;;;;5023046;28;20512;-84
2022/11/29 06:45:46;;;;;;;914.30;707.23;;;8.10;99.90;;;;;;5026195;28;20456;-84
2022/11/29 06:48:20;;;;;;;881.00;686.33;;;8.10;99.90;;;;;;5025540;28;20464;-87
2022/11/29 06:50:56;;;;;;;834.80;664.17;;;8.20;99.90;;;;;;5021202;28;20535;-84
2022/11/29 06:53:35;;;;;;;861.77;685.20;;;8.10;99.90;;;;;;5022657;28;20456;-84
2022/11/29 06:56:13;;;;;;;862.73;690.30;;;8.00;99.90;;;;;;5020621;28;20452;-85
2022/11/29 06:58:50;;;;;;;795.13;667.50;;;8.10;99.90;;;;;;5020423;28;20480;-85
2022/11/29 07:01:26;;;;;;;824.10;664.50;;;8.20;99.90;;;;;;5022742;28;20903;-84
2022/11/29 07:04:07;;;;;;;789.43;700.57;;;8.00;99.90;;;;;;5023863;28;20481;-86
2022/11/29 07:06:35;;;;;;;823.17;692.20;;;8.00;99.90;;;;;;5022312;28;20484;-84
2022/11/29 07:09:13;;;;;;;809.13;701.47;;;8.00;99.90;;;;;;5024797;28;20521;-84
2022/11/29 07:11:40;;;;;;;847.00;652.93;;;8.10;99.90;;;;;;5025170;28;20483;-84
2022/11/29 07:14:08;;;;;;;813.07;655.23;;;8.00;99.90;;;;;;5025152;28;20464;-85
2022/11/29 07:16:42;;;;;;;816.13;671.87;;;8.10;99.90;;;;;;5025523;28;20487;-84
2022/11/29 07:19:17;;;;;;;808.43;653.30;;;8.20;99.90;;;;;;5024540;28;20477;-86
2022/11/29 07:22:03;;;;;;;821.50;656.53;;;8.00;99.90;;;;;;5024860;28;20438;-84
2022/11/29 07:24:45;;;;;;;787.37;648.80;;;8.10;99.90;;;;;;5025310;28;20453;-84
2022/11/29 07:27:18;;;;;;;798.20;657.13;;;8.00;99.90;;;;;;5023524;28;20477;-85
2022/11/29 07:30:01;;;;;;;781.83;655.90;;;8.10;99.90;;;;;;5026137;28;20446;-84
2022/11/29 07:32:42;;;;;;;773.97;655.37;;;8.10;99.90;;;;;;5024713;28;20480;-84
2022/11/29 07:35:15;;;;;;;771.30;658.37;;;8.10;99.90;;;;;;5026736;28;20934;-84
2022/11/29 07:37:53;;;;;;;749.07;660.93;;;8.10;99.90;;;;;;5030083;28;20544;-84
2022/11/29 07:40:26;;;;;;;758.37;665.07;;;7.90;99.90;;;;;;5024173;28;20475;-82
2022/11/29 07:43:04;;;;;;;748.27;666.30;;;7.90;99.90;;;;;;5025047;28;20555;-84
2022/11/29 07:45:35;;;;;;;753.57;670.23;;;8.00;99.90;;;;;;5023977;28;20544;-83
2022/11/29 07:48:02;;;;;;;770.67;658.87;;;8.10;99.90;;;;;;5024625;28;20477;-83
2022/11/29 07:50:29;;;;;;;773.73;635.00;;;8.00;99.90;;;;;;5024460;28;20454;-85
2022/11/29 07:52:57;;;;;;;738.47;636.80;;;8.20;99.90;;;;;;5023653;28;20459;-83
2022/11/29 07:55:26;;;;;;;753.73;640.87;;;8.00;99.90;;;;;;5024094;28;20464;-83
2022/11/29 07:57:53;;;;;;;747.70;643.40;;;8.20;99.90;;;;;;5024063;28;20484;-86
2022/11/29 08:00:21;;;;;;;758.27;645.70;;;8.20;99.90;;;;;;5027408;28;20481;-83
2022/11/29 08:02:50;;;;;;;739.30;648.30;;;8.00;99.90;;;;;;5022056;28;20539;-85
2022/11/29 08:05:17;;;;;;;748.47;639.30;;;7.90;99.90;;;;;;5020348;28;20460;-84
2022/11/29 08:07:45;;;;;;;760.03;640.10;;;8.00;99.90;;;;;;5012876;28;20510;-83
2022/11/29 08:10:14;;;;;;;765.00;632.47;;;8.00;99.90;;;;;;5021784;28;20441;-82
2022/11/29 08:12:44;;;;;;;762.33;640.53;;;8.20;99.90;;;;;;5018222;28;20453;-86
2022/11/29 08:15:11;;;;;;;733.63;650.00;;;8.00;99.90;;;;;;5021722;28;20453;-84
2022/11/29 08:17:39;;;;;;;725.60;642.57;;;8.10;99.90;;;;;;5019425;28;20484;-83
2022/11/29 08:20:07;;;;;;;719.73;641.53;;;8.10;99.90;;;;;;5021048;28;20564;-83
2022/11/29 08:22:34;;;;;;;753.10;673.20;;;8.00;99.90;;;;;;5021395;28;20525;-83
2022/11/29 08:25:00;;;;;;;722.77;644.13;;;8.10;99.90;;;;;;5019947;28;20525;-86
2022/11/29 08:27:28;;;;;;;734.43;656.03;;;8.10;99.90;;;;;;5021047;28;20496;-84
2022/11/29 08:29:56;;;;;;;723.73;646.87;;;8.00;99.90;;;;;;5020616;28;20483;-82
2022/11/29 08:32:23;;;;;;;718.77;641.93;;;8.10;99.90;;;;;;5020227;28;20453;-83
2022/11/29 08:34:49;;;;;;;717.13;641.67;;;8.10;99.90;;;;;;5020709;28;20453;-86
2022/11/29 08:37:16;;;;;;;721.50;645.40;;;8.10;99.90;;;;;;5021844;28;21032;-87
2022/11/29 08:39:43;;;;;;;725.73;650.33;;;8.10;99.90;;;;;;5012182;28;20545;-83
2022/11/29 08:42:10;;;;;;;720.60;643.80;;;8.10;99.90;;;;;;5021440;28;20466;-84
2022/11/29 08:44:37;;;;;;;717.03;642.00;;;8.10;99.90;;;;;;5022082;28;20457;-85
2022/11/29 08:50:01;;;;;;;723.07;646.17;;;8.20;99.90;;;;;;5016621;28;20428;-85
2022/11/29 08:55:12;;;;;;;731.93;655.13;;;8.30;99.90;;;;;;5021087;28;20441;-83
2022/11/29 08:57:42;;;;;;;732.57;655.30;;;8.10;99.90;;;;;;5018994;28;20485;-84
2022/11/29 09:00:10;;;;;;;723.23;646.10;;;8.20;99.90;;;;;;5019478;28;20481;-84
2022/11/29 09:02:39;;;;;;;732.13;657.33;;;8.40;99.90;;;;;;5021585;28;20484;-84
2022/11/29 09:05:07;;;;;;;745.60;668.20;;;8.40;99.90;;;;;;5020686;28;20458;-83
2022/11/29 09:07:34;;;;;;;749.00;672.60;;;8.40;99.90;;;;;;5019850;28;20495;-84
2022/11/29 09:10:03;;;;;;;744.30;669.00;;;8.50;99.90;;;;;;5007876;28;20955;-83
2022/11/29 09:12:31;;;;;;;737.17;664.50;;;8.40;99.90;;;;;;5021734;28;20459;-83
2022/11/29 09:14:58;;;;;;;744.03;671.17;;;8.40;99.90;;;;;;5022435;28;21017;-85
2022/11/29 09:17:26;;;;;;;729.73;660.10;;;8.60;99.90;;;;;;5020435;28;20496;-83
2022/11/29 09:19:54;;;;;;;730.47;661.57;;;8.60;99.90;;;;;;5020654;28;20493;-82
2022/11/29 09:22:21;;;;;;;719.13;650.10;;;8.50;99.90;;;;;;5019534;28;20460;-80
2022/11/29 09:24:48;;;;;;;718.17;652.50;;;8.80;99.90;;;;;;5020707;28;20453;-84
2022/11/29 09:27:15;;;;;;;730.47;665.53;;;8.60;99.90;;;;;;5021018;28;20536;-83
2022/11/29 09:29:42;;;;;;;729.03;665.63;;;8.90;99.90;;;;;;5022387;28;20453;-82
2022/11/29 09:32:09;;;;;;;720.07;658.57;;;9.00;99.90;;;;;;5022346;28;20454;-82
2022/11/29 09:34:36;;;;;;;724.50;667.10;;;9.30;99.90;;;;;;5019827;28;20499;-82
2022/11/29 09:37:04;;;;;;;682.43;631.93;;;9.20;99.90;;;;;;5019669;28;20488;-82
2022/11/29 09:39:31;;;;;;;638.83;597.17;;;9.20;99.90;;;;;;5022190;28;20551;-83
2022/11/29 09:42:22;;;;;;;578.13;540.53;;;9.60;99.90;;;;;;5022341;28;20463;-82
2022/11/29 09:44:58;;;;;;;463.07;436.13;;;9.40;99.90;;;;;;5022613;28;20453;-83
2022/11/29 09:47:38;;;;;;;513.67;483.53;;;9.50;99.90;;;;;;5022542;28;20480;-82
2022/11/29 09:50:24;;;;;;;447.27;420.37;;;9.60;99.90;;;;;;5021396;28;20453;-82
2022/11/29 09:53:07;;;;;;;500.50;472.00;;;9.50;99.90;;;;;;5022308;28;20459;-83
2022/11/29 09:55:54;;;;;;;505.13;477.47;;;9.50;99.90;;;;;;5021752;28;20463;-85
2022/11/29 09:58:25;;;;;;;537.90;508.00;;;9.80;99.90;;;;;;5021771;28;20465;-82
2022/11/29 10:00:57;;;;;;;542.10;512.83;;;9.50;99.90;;;;;;5021623;28;20501;-82
2022/11/29 10:03:27;;;;;;;502.37;474.13;;;9.50;99.90;;;;;;5021139;28;20461;-82
2022/11/29 10:05:58;;;;;;;443.87;419.67;;;9.40;99.90;;;;;;5020729;28;20457;-82
2022/11/29 10:08:32;;;;;;;467.33;441.33;;;9.40;99.90;;;;;;5021770;28;20937;-82
2022/11/29 10:11:14;;;;;;;366.43;347.53;;;9.40;99.90;;;;;;5021317;28;20444;-84
2022/11/29 10:13:44;;;;;;;410.20;387.47;;;9.30;99.90;;;;;;5020559;28;20495;-82
2022/11/29 10:16:18;;;;;;;476.73;450.67;;;9.30;99.90;;;;;;5021713;28;20477;-82
2022/11/29 10:18:49;;;;;;;475.93;450.63;;;9.40;99.90;;;;;;5021440;28;20453;-82
2022/11/29 10:21:20;;;;;;;509.07;481.60;;;9.40;99.90;;;;;;5020260;28;20480;-82
2022/11/29 10:23:51;;;;;;;442.50;419.33;;;9.20;99.90;;;;;;5020791;28;20525;-82
2022/11/29 10:26:19;;;;;;;447.67;425.30;;;9.20;99.90;;;;;;5020826;28;20476;-82
2022/11/29 10:28:48;;;;;;;446.50;423.77;;;9.10;99.90;;;;;;5020380;28;20504;-82
2022/11/29 10:31:21;;;;;;;512.70;485.37;;;9.10;99.90;;;;;;5020795;28;20453;-83
2022/11/29 10:33:49;;;;;;;506.63;479.83;;;9.10;99.90;;;;;;5020157;28;20459;-82
2022/11/29 10:36:21;;;;;;;506.47;480.77;;;9.10;99.90;;;;;;5020356;28;20548;-82
2022/11/29 10:38:51;;;;;;;546.43;516.87;;;9.20;99.90;;;;;;5020609;28;20454;-82
2022/11/29 10:41:22;;;;;;;550.80;520.80;;;9.20;99.90;;;;;;5019850;28;20473;-82
2022/11/29 10:43:50;;;;;;;576.93;543.60;;;9.20;99.90;;;;;;5020480;28;20461;-82
2022/11/29 10:46:27;;;;;;;591.63;557.10;;;9.20;99.90;;;;;;5020357;28;20473;-82
2022/11/29 10:48:55;;;;;;;582.10;548.53;;;9.20;99.90;;;;;;5020321;28;20981;-82
2022/11/29 10:51:22;;;;;;;584.50;550.83;;;9.30;99.90;;;;;;5018518;28;20445;-83
2022/11/29 10:53:53;;;;;;;594.20;559.80;;;9.30;99.90;;;;;;5019359;28;20552;-82
2022/11/29 10:56:26;;;;;;;574.80;542.63;;;9.20;99.90;;;;;;5019887;28;20463;-85
2022/11/29 10:58:55;;;;;;;579.07;544.97;;;9.40;99.90;;;;;;5024546;28;20207;-84
2022/11/29 11:01:23;;;;;;;567.83;535.23;;;9.20;99.90;;;;;;5020342;28;20534;-85
2022/11/29 11:03:52;;;;;;;601.50;565.00;;;9.20;99.90;;;;;;5025170;28;20540;-83
2022/11/29 11:06:20;;;;;;;596.53;560.83;;;9.30;99.90;;;;;;5024045;28;20492;-84
2022/11/29 11:08:51;;;;;;;597.60;562.33;;;9.10;99.90;;;;;;5025810;28;20484;-84
2022/11/29 11:11:26;;;;;;;602.27;567.17;;;9.20;99.90;;;;;;5025498;28;20476;-84
2022/11/29 11:14:00;;;;;;;610.13;573.20;;;9.20;99.90;;;;;;5026388;28;20503;-86
2022/11/29 11:16:27;;;;;;;613.20;576.00;;;9.30;99.90;;;;;;5030476;28;20468;-86
2022/11/29 11:18:54;;;;;;;626.73;584.80;;;9.20;99.90;;;;;;5030256;28;20838;-83
2022/11/29 11:21:25;;;;;;;619.83;580.13;;;9.20;99.90;;;;;;5028886;28;20541;-83
2022/11/29 11:23:55;;;;;;;620.87;580.60;;;9.20;99.90;;;;;;5028777;28;20538;-83
2022/11/29 11:26:24;;;;;;;628.20;587.77;;;9.20;99.90;;;;;;5028635;28;20552;-84
2022/11/29 11:28:55;;;;;;;640.73;599.70;;;9.10;99.90;;;;;;5027847;28;20457;-82
2022/11/29 11:31:34;;;;;;;616.13;578.13;;;9.40;99.90;;;;;;5025757;28;20449;-82
2022/11/29 11:34:25;;;;;;;629.83;589.27;;;9.40;99.90;;;;;;5015549;28;20460;-83
2022/11/29 11:36:52;;;;;;;597.80;561.90;;;9.30;99.90;;;;;;5005188;28;20474;-80
2022/11/29 11:39:22;;;;;;;583.73;549.20;;;9.30;99.90;;;;;;5004525;28;20465;-81
2022/11/29 11:44:39;;;;;;;485.03;459.13;;;9.40;99.90;;;;;;5003338;28;20429;-82
2022/11/29 11:47:08;;;;;;;500.00;474.23;;;9.40;99.90;;;;;;5004097;28;20650;-83
2022/11/29 11:49:45;;;;;;;445.90;423.57;;;9.40;99.90;;;;;;5005835;28;20490;-82
2022/11/29 11:52:19;;;;;;;503.90;476.70;;;9.40;99.90;;;;;;5022857;28;20449;-83
2022/11/29 11:54:52;;;;;;;495.63;470.93;;;9.30;99.90;;;;;;5021526;28;20448;-82
2022/11/29 11:57:20;;;;;;;546.57;516.93;;;9.20;99.90;;;;;;5024110;28;20565;-81
2022/11/29 11:59:49;;;;;;;499.97;474.23;;;9.40;99.90;;;;;;5016870;28;20542;-83
2022/11/29 12:02:25;;;;;;;476.50;453.07;;;9.30;99.90;;;;;;5022238;28;20460;-80
2022/11/29 12:04:55;;;;;;;480.80;457.70;;;9.20;99.90;;;;;;5021689;28;20456;-84
2022/11/29 12:07:28;;;;;;;450.10;426.50;;;9.20;99.90;;;;;;5023200;28;20523;-82
2022/11/29 12:10:01;;;;;;;461.03;437.23;;;9.10;99.90;;;;;;5022759;28;20453;-82
2022/11/29 12:12:32;;;;;;;520.20;490.80;;;9.00;99.90;;;;;;5022613;28;20459;-81
2022/11/29 12:15:01;;;;;;;525.67;497.47;;;9.10;99.90;;;;;;5022948;28;20453;-84
2022/11/29 12:17:34;;;;;;;509.00;481.40;;;9.20;99.90;;;;;;5022741;28;20866;-82
2022/11/29 12:20:12;;;;;;;523.43;494.70;;;9.10;99.90;;;;;;5022914;28;20460;-82
2022/11/29 12:22:45;;;;;;;544.20;512.83;;;9.30;99.90;;;;;;5022968;28;20468;-84
2022/11/29 12:25:18;;;;;;;548.43;516.17;;;9.20;99.90;;;;;;5022891;28;20464;-85
2022/11/29 12:27:45;;;;;;;538.17;505.83;;;9.20;99.90;;;;;;5021838;28;20477;-82
2022/11/29 12:30:14;;;;;;;544.57;513.27;;;9.20;99.90;;;;;;5022080;28;20449;-81
2022/11/29 12:33:04;;;;;;;531.93;501.47;;;9.20;99.90;;;;;;5015014;28;20541;-85
2022/11/29 12:35:48;;;;;;;550.20;516.80;;;9.20;99.90;;;;;;5016625;28;20453;-82
2022/11/29 12:38:28;;;;;;;560.60;525.87;;;9.30;99.90;;;;;;5020645;28;20459;-81
2022/11/29 12:41:07;;;;;;;548.03;515.37;;;9.30;99.90;;;;;;5019852;28;20473;-82
2022/11/29 12:43:46;;;;;;;543.83;509.57;;;9.50;99.90;;;;;;5020283;28;20453;-82
2022/11/29 12:46:22;;;;;;;522.07;491.07;;;9.60;99.90;;;;;;5020037;28;20472;-84
2022/11/29 12:48:58;;;;;;;498.53;471.03;;;9.70;99.90;;;;;;5019685;28;20441;-82
2022/11/29 12:51:34;;;;;;;457.87;433.10;;;9.60;99.90;;;;;;5020622;28;20448;-81
2022/11/29 12:54:18;;;;;;;430.47;407.93;;;9.50;99.90;;;;;;5020033;28;20539;-83
2022/11/29 12:56:52;;;;;;;407.73;385.17;;;9.60;99.90;;;;;;5018921;28;20479;-82
2022/11/29 12:59:30;;;;;;;451.07;426.87;;;9.50;99.90;;;;;;5020214;28;20455;-82
2022/11/29 13:02:16;;;;;;;424.13;401.53;;;9.40;99.90;;;;;;5020036;28;20473;-82
2022/11/29 13:04:51;;;;;;;452.83;427.83;;;9.50;99.90;;;;;;5011283;28;21042;-82
2022/11/29 13:07:26;;;;;;;458.30;432.27;;;9.50;99.90;;;;;;5020855;28;20856;-84
2022/11/29 13:10:12;;;;;;;371.33;350.90;;;9.50;99.90;;;;;;5018207;28;20452;-83